createdAt,value
2019-05-19T00:00:12.995Z,18.32
2019-05-19T00:01:49.441Z,18.31
2019-05-19T00:03:25.004Z,18.28
2019-05-19T00:05:02.338Z,18.26
2019-05-19T00:06:38.217Z,18.26
2019-05-19T00:08:14.898Z,18.23
2019-05-19T00:09:50.421Z,18.21
2019-05-19T00:11:27.668Z,18.17
2019-05-19T00:13:04.205Z,18.16
2019-05-19T00:14:40.803Z,18.14
2019-05-19T00:16:16.327Z,18.10
2019-05-19T00:17:52.603Z,18.08
2019-05-19T00:19:28.147Z,18.06
2019-05-19T00:21:04.407Z,18.05
2019-05-19T00:22:39.937Z,18.02
2019-05-19T00:24:16.231Z,18.00
2019-05-19T00:25:51.808Z,17.98
2019-05-19T00:27:28.085Z,17.96
2019-05-19T00:29:03.926Z,17.94
2019-05-19T00:30:40.207Z,17.92
2019-05-19T00:32:15.731Z,17.91
2019-05-19T00:33:52.089Z,17.89
2019-05-19T00:35:27.703Z,17.86
2019-05-19T00:37:04.074Z,17.85
2019-05-19T00:38:39.604Z,17.84
2019-05-19T00:40:15.999Z,17.83
2019-05-19T00:41:51.830Z,17.82
2019-05-19T00:43:28.115Z,17.81
2019-05-19T00:45:05.854Z,17.80
2019-05-19T00:46:42.405Z,17.80
2019-05-19T00:48:17.904Z,17.79
2019-05-19T00:49:54.198Z,17.75
2019-05-19T00:51:30.023Z,17.74
2019-05-19T00:53:06.295Z,17.73
2019-05-19T00:54:41.827Z,17.72
2019-05-19T00:56:19.135Z,17.71
2019-05-19T00:57:55.216Z,17.69
2019-05-19T00:59:32.226Z,17.68
2019-05-19T01:01:07.873Z,17.66
2019-05-19T01:02:45.698Z,17.65
2019-05-19T01:04:21.178Z,17.64
2019-05-19T01:05:57.466Z,17.62
2019-05-19T01:07:33.007Z,17.60
2019-05-19T01:09:09.378Z,17.57
2019-05-19T01:10:45.329Z,17.55
2019-05-19T01:12:21.701Z,17.52
2019-05-19T01:13:57.823Z,17.50
2019-05-19T01:15:35.687Z,17.47
2019-05-19T01:17:11.253Z,17.44
2019-05-19T01:18:47.547Z,17.43
2019-05-19T01:20:23.708Z,17.42
2019-05-19T01:22:03.230Z,17.42
2019-05-19T01:23:38.771Z,17.40
2019-05-19T01:25:16.828Z,17.40
2019-05-19T01:26:52.362Z,17.39
2019-05-19T01:28:29.618Z,17.39
2019-05-19T01:30:10.534Z,17.37
2019-05-19T01:31:46.807Z,17.35
2019-05-19T01:33:22.374Z,17.34
2019-05-19T01:34:58.693Z,17.33
2019-05-19T01:36:34.471Z,17.32
2019-05-19T01:38:11.041Z,17.31
2019-05-19T01:39:46.624Z,17.28
2019-05-19T01:41:23.145Z,17.26
2019-05-19T01:42:58.669Z,17.25
2019-05-19T01:44:34.936Z,17.22
2019-05-19T01:46:10.468Z,17.19
2019-05-19T01:47:46.784Z,17.17
2019-05-19T01:49:22.324Z,17.15
2019-05-19T01:50:58.582Z,17.12
2019-05-19T01:52:34.124Z,17.08
2019-05-19T01:54:10.664Z,17.06
2019-05-19T01:55:49.432Z,17.05
2019-05-19T01:57:25.707Z,17.01
2019-05-19T01:59:01.225Z,16.98
2019-05-19T02:00:37.499Z,16.96
2019-05-19T02:02:14.115Z,16.94
2019-05-19T02:03:50.631Z,16.93
2019-05-19T02:05:26.173Z,16.91
2019-05-19T02:07:02.512Z,16.89
2019-05-19T02:08:38.052Z,16.87
2019-05-19T02:10:14.497Z,16.85
2019-05-19T02:11:50.028Z,16.85
2019-05-19T02:13:26.321Z,16.81
2019-05-19T02:15:02.298Z,16.78
2019-05-19T02:16:40.145Z,16.75
2019-05-19T02:18:16.840Z,16.72
2019-05-19T02:19:53.376Z,16.70
2019-05-19T02:21:28.904Z,16.67
2019-05-19T02:23:05.189Z,16.66
2019-05-19T02:24:41.692Z,16.63
2019-05-19T02:26:17.969Z,16.60
2019-05-19T02:27:53.787Z,16.58
2019-05-19T02:29:30.345Z,16.56
2019-05-19T02:31:05.876Z,16.53
2019-05-19T02:32:42.389Z,16.50
2019-05-19T02:34:17.930Z,16.49
2019-05-19T02:35:54.186Z,16.47
2019-05-19T02:37:29.996Z,16.44
2019-05-19T02:39:08.067Z,16.42
2019-05-19T02:40:50.860Z,16.41
2019-05-19T02:42:30.297Z,16.41
2019-05-19T02:44:07.167Z,16.39
2019-05-19T02:45:43.561Z,16.38
2019-05-19T02:47:21.646Z,16.37
2019-05-19T02:48:59.916Z,16.37
2019-05-19T02:50:51.839Z,16.36
2019-05-19T02:52:17.139Z,16.35
2019-05-19T02:53:52.816Z,16.33
2019-05-19T02:55:30.740Z,16.32
2019-05-19T02:57:06.804Z,16.32
2019-05-19T02:58:43.555Z,16.31
2019-05-19T03:00:22.636Z,16.29
2019-05-19T03:02:02.771Z,16.29
2019-05-19T03:03:39.044Z,16.28
2019-05-19T03:05:15.610Z,16.27
2019-05-19T03:06:51.925Z,16.27
2019-05-19T03:08:28.430Z,16.27
2019-05-19T03:10:05.555Z,16.25
2019-05-19T03:11:41.089Z,16.25
2019-05-19T03:13:17.382Z,16.23
2019-05-19T03:14:53.224Z,16.23
2019-05-19T03:16:29.488Z,16.21
2019-05-19T03:18:05.097Z,16.20
2019-05-19T03:19:41.376Z,16.19
2019-05-19T03:21:16.911Z,16.18
2019-05-19T03:22:54.887Z,16.18
2019-05-19T03:24:30.439Z,16.18
2019-05-19T03:26:06.934Z,16.17
2019-05-19T03:27:42.473Z,16.16
2019-05-19T03:29:19.659Z,16.14
2019-05-19T03:30:59.783Z,16.12
2019-05-19T03:32:36.954Z,16.12
2019-05-19T03:34:14.081Z,16.11
2019-05-19T03:35:50.354Z,16.08
2019-05-19T03:37:26.669Z,16.07
2019-05-19T03:39:02.968Z,16.07
2019-05-19T03:40:38.574Z,16.07
2019-05-19T03:42:14.862Z,16.09
2019-05-19T03:43:50.396Z,16.09
2019-05-19T03:45:26.688Z,16.13
2019-05-19T03:47:02.286Z,16.16
2019-05-19T03:48:39.700Z,16.18
2019-05-19T03:50:15.788Z,16.23
2019-05-19T03:51:52.231Z,16.27
2019-05-19T03:53:28.057Z,16.31
2019-05-19T03:55:05.162Z,16.36
2019-05-19T03:56:40.718Z,16.42
2019-05-19T03:58:17.295Z,16.48
2019-05-19T03:59:52.836Z,16.54
2019-05-19T04:01:29.390Z,16.59
2019-05-19T04:03:04.934Z,16.67
2019-05-19T04:04:41.231Z,16.72
2019-05-19T04:06:16.730Z,16.77
2019-05-19T04:07:53.036Z,16.79
2019-05-19T04:09:28.653Z,16.82
2019-05-19T04:11:04.915Z,16.86
2019-05-19T04:12:40.458Z,16.91
2019-05-19T04:14:17.980Z,16.95
2019-05-19T04:15:53.539Z,17.00
2019-05-19T04:17:29.805Z,17.05
2019-05-19T04:19:05.355Z,17.11
2019-05-19T04:20:43.513Z,17.17
2019-05-19T04:22:19.035Z,17.25
2019-05-19T04:23:55.307Z,17.34
2019-05-19T04:25:33.701Z,17.43
2019-05-19T04:27:10.011Z,17.52
2019-05-19T04:28:45.556Z,17.62
2019-05-19T04:30:21.971Z,17.72
2019-05-19T04:31:58.332Z,17.83
2019-05-19T04:33:34.646Z,17.92
2019-05-19T04:35:10.333Z,18.02
2019-05-19T04:36:46.614Z,18.14
2019-05-19T04:38:22.176Z,18.25
2019-05-19T04:39:58.721Z,18.40
2019-05-19T04:41:34.232Z,18.53
2019-05-19T04:43:10.514Z,18.66
2019-05-19T04:44:46.065Z,18.79
2019-05-19T04:46:22.342Z,18.93
2019-05-19T04:47:57.883Z,19.05
2019-05-19T04:49:34.157Z,19.19
2019-05-19T04:51:09.703Z,19.32
2019-05-19T04:52:45.975Z,19.46
2019-05-19T04:54:21.523Z,19.59
2019-05-19T04:55:57.775Z,19.73
2019-05-19T04:57:33.300Z,19.85
2019-05-19T04:59:09.578Z,19.99
2019-05-19T05:00:46.808Z,20.13
2019-05-19T05:02:23.079Z,20.29
2019-05-19T05:03:59.786Z,20.42
2019-05-19T05:05:39.105Z,20.57
2019-05-19T05:07:14.676Z,20.69
2019-05-19T05:08:50.979Z,20.78
2019-05-19T05:10:26.645Z,20.92
2019-05-19T05:12:02.954Z,21.02
2019-05-19T05:13:38.757Z,21.14
2019-05-19T05:15:15.087Z,21.28
2019-05-19T05:16:52.104Z,21.43
2019-05-19T05:18:28.377Z,21.56
2019-05-19T05:20:06.218Z,21.71
2019-05-19T05:21:42.503Z,21.87
2019-05-19T05:23:18.285Z,22.02
2019-05-19T05:24:54.869Z,22.17
2019-05-19T05:26:30.381Z,22.31
2019-05-19T05:28:06.983Z,22.43
2019-05-19T05:29:42.607Z,22.56
2019-05-19T05:31:18.913Z,22.64
2019-05-19T05:32:54.474Z,22.73
2019-05-19T05:34:31.701Z,22.85
2019-05-19T05:36:07.248Z,22.96
2019-05-19T05:37:43.503Z,23.11
2019-05-19T05:39:19.056Z,23.22
2019-05-19T05:40:55.316Z,23.36
2019-05-19T05:42:31.937Z,23.47
2019-05-19T05:44:08.461Z,23.58
2019-05-19T05:45:46.184Z,23.70
2019-05-19T05:47:22.452Z,23.83
2019-05-19T05:48:58.235Z,23.94
2019-05-19T05:50:34.787Z,24.04
2019-05-19T05:52:10.325Z,24.11
2019-05-19T05:53:46.627Z,24.20
2019-05-19T05:55:22.174Z,24.27
2019-05-19T05:56:58.465Z,24.35
2019-05-19T05:58:35.111Z,24.42
2019-05-19T06:00:12.108Z,24.49
2019-05-19T06:01:47.783Z,24.57
2019-05-19T06:03:25.018Z,24.65
2019-05-19T06:05:00.565Z,24.75
2019-05-19T06:06:36.824Z,24.89
2019-05-19T06:08:12.444Z,25.04
2019-05-19T06:09:48.712Z,25.19
2019-05-19T06:11:24.250Z,25.33
2019-05-19T06:13:00.575Z,25.48
2019-05-19T06:14:36.112Z,25.63
2019-05-19T06:16:12.661Z,25.81
2019-05-19T06:17:48.188Z,25.96
2019-05-19T06:19:24.528Z,26.07
2019-05-19T06:21:00.035Z,26.14
2019-05-19T06:22:36.309Z,26.20
2019-05-19T06:24:11.861Z,26.28
2019-05-19T06:25:49.793Z,26.34
2019-05-19T06:27:25.311Z,26.44
2019-05-19T06:29:01.571Z,26.52
2019-05-19T06:30:40.214Z,26.58
2019-05-19T06:32:17.398Z,26.64
2019-05-19T06:33:53.949Z,26.68
2019-05-19T06:35:29.567Z,26.76
2019-05-19T06:37:05.848Z,26.88
2019-05-19T06:38:41.420Z,26.97
2019-05-19T06:40:18.792Z,27.06
2019-05-19T06:41:58.212Z,27.16
2019-05-19T06:43:34.492Z,27.23
2019-05-19T06:45:12.704Z,27.25
2019-05-19T06:46:49.028Z,27.27
2019-05-19T06:48:24.557Z,27.31
2019-05-19T06:50:00.817Z,27.33
2019-05-19T06:51:36.973Z,27.39
2019-05-19T06:53:14.556Z,27.42
2019-05-19T06:54:50.443Z,27.43
2019-05-19T06:56:27.054Z,27.44
2019-05-19T06:58:02.669Z,27.46
2019-05-19T06:59:39.013Z,27.49
2019-05-19T07:01:14.557Z,27.53
2019-05-19T07:02:50.810Z,27.59
2019-05-19T07:04:26.352Z,27.66
2019-05-19T07:06:02.866Z,27.69
2019-05-19T07:07:38.455Z,27.71
2019-05-19T07:09:14.805Z,27.73
2019-05-19T07:10:50.338Z,27.76
2019-05-19T07:12:26.618Z,27.80
2019-05-19T07:14:03.122Z,27.82
2019-05-19T07:15:39.531Z,27.87
2019-05-19T07:17:16.682Z,27.87
2019-05-19T07:18:53.601Z,27.94
2019-05-19T07:20:34.021Z,27.98
2019-05-19T07:22:10.540Z,28.05
2019-05-19T07:23:46.064Z,28.12
2019-05-19T07:25:22.334Z,28.19
2019-05-19T07:27:00.601Z,28.21
2019-05-19T07:28:36.858Z,28.22
2019-05-19T07:30:12.517Z,28.25
2019-05-19T07:31:48.830Z,28.28
2019-05-19T07:33:24.335Z,28.34
2019-05-19T07:35:00.644Z,28.43
2019-05-19T07:36:36.208Z,28.58
2019-05-19T07:38:12.656Z,28.73
2019-05-19T07:39:48.182Z,28.85
2019-05-19T07:41:24.459Z,28.94
2019-05-19T07:43:00.024Z,28.98
2019-05-19T07:44:36.331Z,29.01
2019-05-19T07:46:11.903Z,29.08
2019-05-19T07:47:48.161Z,29.16
2019-05-19T07:49:23.740Z,29.25
2019-05-19T07:51:00.370Z,29.27
2019-05-19T07:52:35.973Z,29.32
2019-05-19T07:54:12.236Z,29.34
2019-05-19T07:55:50.589Z,29.38
2019-05-19T07:57:26.949Z,29.44
2019-05-19T07:59:02.634Z,29.56
2019-05-19T08:00:41.090Z,29.66
2019-05-19T08:02:16.684Z,29.78
2019-05-19T08:03:52.959Z,29.84
2019-05-19T08:05:28.493Z,29.93
2019-05-19T08:07:04.771Z,29.97
2019-05-19T08:08:41.545Z,30.04
2019-05-19T08:10:17.905Z,30.11
2019-05-19T08:11:53.444Z,30.20
2019-05-19T08:13:29.802Z,30.28
2019-05-19T08:15:09.932Z,30.29
2019-05-19T08:16:46.219Z,30.31
2019-05-19T08:18:21.819Z,30.39
2019-05-19T08:19:58.068Z,30.50
2019-05-19T08:21:33.608Z,30.61
2019-05-19T08:23:09.871Z,30.72
2019-05-19T08:24:45.651Z,30.77
2019-05-19T08:26:21.921Z,30.86
2019-05-19T08:28:07.609Z,30.94
2019-05-19T08:29:35.422Z,31.06
2019-05-19T08:31:10.958Z,31.20
2019-05-19T08:32:47.248Z,31.35
2019-05-19T08:34:22.901Z,31.47
2019-05-19T08:35:59.428Z,31.64
2019-05-19T08:37:34.937Z,31.82
2019-05-19T08:39:11.492Z,31.92
2019-05-19T08:40:47.993Z,32.00
2019-05-19T08:42:24.218Z,32.05
2019-05-19T08:44:00.000Z,32.02
2019-05-19T08:45:39.643Z,31.98
2019-05-19T08:47:16.036Z,31.99
2019-05-19T08:48:51.563Z,31.94
2019-05-19T08:50:28.779Z,31.99
2019-05-19T08:52:04.255Z,32.12
2019-05-19T08:53:40.518Z,32.28
2019-05-19T08:55:17.094Z,32.39
2019-05-19T08:56:53.598Z,32.38
2019-05-19T08:58:29.111Z,32.32
2019-05-19T09:00:08.896Z,32.31
2019-05-19T09:01:45.203Z,32.35
2019-05-19T09:03:21.474Z,32.29
2019-05-19T09:04:57.272Z,32.25
2019-05-19T09:06:33.522Z,32.24
2019-05-19T09:08:09.063Z,32.12
2019-05-19T09:09:45.323Z,32.01
2019-05-19T09:11:20.873Z,31.93
2019-05-19T09:12:57.142Z,31.88
2019-05-19T09:14:32.664Z,31.81
2019-05-19T09:16:08.923Z,31.72
2019-05-19T09:17:44.472Z,31.74
2019-05-19T09:19:21.036Z,31.84
2019-05-19T09:20:56.915Z,31.97
2019-05-19T09:22:33.140Z,32.10
2019-05-19T09:24:08.742Z,32.24
2019-05-19T09:25:45.020Z,32.45
2019-05-19T09:27:20.544Z,32.65
2019-05-19T09:28:56.819Z,32.85
2019-05-19T09:30:39.806Z,33.07
2019-05-19T09:32:14.577Z,33.32
2019-05-19T09:33:50.127Z,33.54
2019-05-19T09:35:26.406Z,33.76
2019-05-19T09:37:01.957Z,33.89
2019-05-19T09:38:38.538Z,34.02
2019-05-19T09:40:15.712Z,34.14
2019-05-19T09:41:52.268Z,34.26
2019-05-19T09:43:28.815Z,34.36
2019-05-19T09:45:07.637Z,34.47
2019-05-19T09:46:43.173Z,34.62
2019-05-19T09:48:19.759Z,34.75
2019-05-19T09:49:55.536Z,34.86
2019-05-19T09:51:31.806Z,35.03
2019-05-19T09:53:07.352Z,35.12
2019-05-19T09:54:45.626Z,35.17
2019-05-19T09:56:20.863Z,35.30
2019-05-19T09:57:57.174Z,35.39
2019-05-19T09:59:32.687Z,35.37
2019-05-19T10:01:11.775Z,35.38
2019-05-19T10:02:48.524Z,35.45
2019-05-19T10:04:24.813Z,35.55
2019-05-19T10:06:00.365Z,35.60
2019-05-19T10:07:36.672Z,35.72
2019-05-19T10:09:21.109Z,35.78
2019-05-19T10:11:06.913Z,35.85
2019-05-19T10:12:43.197Z,35.93
2019-05-19T10:14:20.148Z,35.92
2019-05-19T10:15:56.399Z,35.91
2019-05-19T10:17:31.996Z,35.97
2019-05-19T10:19:08.264Z,36.02
2019-05-19T10:20:43.761Z,36.09
2019-05-19T10:22:22.887Z,36.10
2019-05-19T10:23:58.394Z,36.06
2019-05-19T10:25:34.883Z,36.01
2019-05-19T10:27:10.393Z,36.14
2019-05-19T10:28:46.653Z,36.35
2019-05-19T10:30:22.525Z,36.32
2019-05-19T10:31:58.851Z,36.35
2019-05-19T10:33:35.345Z,36.39
2019-05-19T10:35:11.743Z,36.46
2019-05-19T10:36:47.691Z,36.53
2019-05-19T10:38:24.277Z,36.65
2019-05-19T10:39:59.805Z,36.75
2019-05-19T10:41:36.127Z,36.87
2019-05-19T10:43:11.665Z,36.98
2019-05-19T10:44:47.913Z,37.02
2019-05-19T10:46:23.429Z,36.93
2019-05-19T10:47:59.670Z,36.73
2019-05-19T10:49:35.207Z,36.44
2019-05-19T10:51:11.466Z,36.09
2019-05-19T10:52:46.985Z,35.70
2019-05-19T10:54:23.239Z,35.28
2019-05-19T10:55:58.759Z,34.83
2019-05-19T10:57:35.006Z,34.41
2019-05-19T10:59:10.788Z,34.05
2019-05-19T11:00:48.053Z,33.74
2019-05-19T11:02:23.814Z,33.48
2019-05-19T11:04:00.083Z,33.30
2019-05-19T11:05:35.600Z,33.15
2019-05-19T11:07:14.942Z,33.02
2019-05-19T11:27:44.079Z,33.44
2019-05-19T11:29:21.319Z,33.50
2019-05-19T11:30:56.846Z,33.56
2019-05-19T11:32:33.114Z,33.58
2019-05-19T11:34:08.927Z,33.57
2019-05-19T11:35:45.324Z,33.54
2019-05-19T11:37:20.847Z,33.46
2019-05-19T11:38:57.131Z,33.38
2019-05-19T11:40:33.597Z,33.35
2019-05-19T11:42:10.148Z,33.35
2019-05-19T11:43:45.666Z,33.34
2019-05-19T11:45:21.933Z,33.29
2019-05-19T11:46:57.443Z,33.19
2019-05-19T11:48:33.709Z,33.07
2019-05-19T11:50:09.516Z,32.96
2019-05-19T11:51:45.781Z,32.86
2019-05-19T11:53:21.304Z,32.76
2019-05-19T11:54:57.810Z,32.63
2019-05-19T11:56:33.323Z,32.55
2019-05-19T11:58:09.577Z,32.45
2019-05-19T11:59:45.110Z,32.36
2019-05-19T12:01:22.339Z,32.26
2019-05-19T12:02:58.108Z,32.19
2019-05-19T12:04:34.376Z,32.07
2019-05-19T12:06:09.892Z,31.96
2019-05-19T12:07:46.193Z,31.87
2019-05-19T12:09:21.796Z,31.79
2019-05-19T12:10:58.055Z,31.77
2019-05-19T12:12:33.901Z,31.83
2019-05-19T12:14:10.157Z,31.93
2019-05-19T12:15:45.997Z,32.01
2019-05-19T12:17:22.342Z,32.08
2019-05-19T12:18:58.110Z,32.18
2019-05-19T12:20:34.376Z,32.22
2019-05-19T12:22:09.904Z,32.27
2019-05-19T12:23:46.156Z,32.29
2019-05-19T12:25:21.693Z,32.32
2019-05-19T12:26:57.960Z,32.41
2019-05-19T12:28:33.517Z,32.55
2019-05-19T12:30:10.092Z,32.77
2019-05-19T12:31:45.875Z,33.06
2019-05-19T12:33:22.196Z,33.38
2019-05-19T12:34:57.730Z,33.67
2019-05-19T12:36:33.977Z,33.90
2019-05-19T12:38:09.489Z,34.04
2019-05-19T12:39:45.796Z,34.12
2019-05-19T12:41:21.318Z,34.19
2019-05-19T12:42:57.578Z,34.33
2019-05-19T12:44:33.096Z,34.50
2019-05-19T12:46:16.168Z,34.61
2019-05-19T12:47:46.606Z,34.62
2019-05-19T12:49:22.925Z,34.56
2019-05-19T12:50:58.449Z,34.46
2019-05-19T12:52:34.692Z,34.36
2019-05-19T12:54:10.218Z,34.25
2019-05-19T12:55:46.487Z,34.25
2019-05-19T12:57:22.006Z,34.26
2019-05-19T12:58:59.044Z,34.23
2019-05-19T13:00:34.575Z,34.12
2019-05-19T13:02:10.829Z,33.99
2019-05-19T13:03:46.350Z,33.84
2019-05-19T13:05:22.609Z,33.83
2019-05-19T13:06:58.443Z,33.91
2019-05-19T13:08:34.705Z,34.06
2019-05-19T13:10:10.770Z,34.33
2019-05-19T13:11:47.025Z,34.60
2019-05-19T13:13:22.555Z,34.90
2019-05-19T13:14:58.819Z,35.23
2019-05-19T13:16:35.082Z,35.50
2019-05-19T13:18:15.493Z,35.72
2019-05-19T13:19:53.714Z,35.86
2019-05-19T13:21:30.998Z,35.96
2019-05-19T13:23:06.810Z,36.05
2019-05-19T13:24:43.098Z,36.14
2019-05-19T13:26:18.898Z,36.22
2019-05-19T13:27:55.419Z,36.35
2019-05-19T13:29:30.950Z,36.49
2019-05-19T13:31:07.306Z,36.50
2019-05-19T13:32:42.822Z,36.48
2019-05-19T13:34:19.131Z,36.40
2019-05-19T13:35:54.659Z,36.33
2019-05-19T13:37:31.224Z,36.21
2019-05-19T13:39:08.107Z,36.07
2019-05-19T13:40:44.430Z,35.92
2019-05-19T13:42:19.959Z,35.74
2019-05-19T13:43:59.449Z,35.56
2019-05-19T13:45:33.702Z,35.44
2019-05-19T13:47:09.963Z,35.36
2019-05-19T13:48:45.481Z,35.32
2019-05-19T13:50:21.736Z,35.26
2019-05-19T13:51:57.253Z,35.20
2019-05-19T13:53:33.514Z,35.13
2019-05-19T13:55:09.105Z,35.08
2019-05-19T13:56:45.361Z,35.04
2019-05-19T13:58:20.890Z,35.08
2019-05-19T13:59:57.164Z,35.13
2019-05-19T14:01:32.947Z,35.22
2019-05-19T14:03:09.239Z,35.27
2019-05-19T14:04:44.721Z,35.25
2019-05-19T14:06:21.002Z,35.20
2019-05-19T14:07:56.772Z,35.11
2019-05-19T14:09:33.030Z,34.97
2019-05-19T14:11:08.793Z,34.81
2019-05-19T14:12:45.048Z,34.66
2019-05-19T14:14:20.555Z,34.55
2019-05-19T14:15:56.822Z,34.44
2019-05-19T14:17:32.346Z,34.30
2019-05-19T14:19:08.607Z,34.14
2019-05-19T14:20:44.116Z,33.99
2019-05-19T14:22:20.380Z,33.84
2019-05-19T14:23:55.935Z,33.67
2019-05-19T14:25:32.163Z,33.51
2019-05-19T14:27:07.690Z,33.37
2019-05-19T14:28:43.965Z,33.26
2019-05-19T14:30:19.824Z,33.19
2019-05-19T14:31:56.151Z,33.17
2019-05-19T14:33:31.838Z,33.11
2019-05-19T14:35:09.010Z,33.08
2019-05-19T14:36:44.536Z,33.07
2019-05-19T14:38:20.783Z,33.05
2019-05-19T14:39:56.560Z,33.06
2019-05-19T14:41:34.784Z,33.06
2019-05-19T14:43:10.562Z,33.07
2019-05-19T14:44:46.812Z,33.06
2019-05-19T14:46:22.349Z,33.03
2019-05-19T14:47:58.841Z,33.02
2019-05-19T14:49:34.355Z,32.95
2019-05-19T14:51:10.628Z,32.89
2019-05-19T14:52:46.156Z,32.81
2019-05-19T14:54:22.455Z,32.73
2019-05-19T14:55:58.193Z,32.63
2019-05-19T14:57:44.482Z,32.56
2019-05-19T14:59:11.655Z,32.43
2019-05-19T15:00:48.973Z,32.29
2019-05-19T15:02:24.481Z,32.16
2019-05-19T15:04:00.737Z,32.04
2019-05-19T15:05:36.253Z,31.92
2019-05-19T15:07:12.512Z,31.80
2019-05-19T15:08:48.022Z,31.66
2019-05-19T15:10:24.461Z,31.54
2019-05-19T15:11:59.990Z,31.42
2019-05-19T15:13:36.238Z,31.30
2019-05-19T15:15:12.211Z,31.20
2019-05-19T15:16:48.464Z,31.12
2019-05-19T15:18:23.971Z,31.04
2019-05-19T15:20:00.243Z,30.94
2019-05-19T15:21:35.761Z,30.87
2019-05-19T15:23:12.378Z,30.81
2019-05-19T15:24:47.884Z,30.77
2019-05-19T15:26:24.144Z,30.72
2019-05-19T15:28:02.754Z,30.68
2019-05-19T15:29:37.622Z,30.62
2019-05-19T15:31:13.132Z,30.55
2019-05-19T15:32:49.496Z,30.50
2019-05-19T15:34:25.370Z,30.46
2019-05-19T15:36:01.623Z,30.44
2019-05-19T15:37:37.145Z,30.42
2019-05-19T15:39:14.612Z,30.38
2019-05-19T15:40:50.517Z,30.34
2019-05-19T15:42:26.785Z,30.30
2019-05-19T15:44:02.419Z,30.27
2019-05-19T15:45:38.704Z,30.23
2019-05-19T15:47:14.223Z,30.20
2019-05-19T15:48:50.479Z,30.19
2019-05-19T15:50:25.996Z,30.16
2019-05-19T15:52:04.749Z,30.10
2019-05-19T15:53:39.831Z,30.04
2019-05-19T15:55:16.290Z,29.98
2019-05-19T15:56:52.797Z,29.98
2019-05-19T15:58:29.337Z,29.97
2019-05-19T16:00:09.360Z,29.97
2019-05-19T16:01:45.867Z,29.98
2019-05-19T16:03:21.406Z,29.99
2019-05-19T16:04:57.661Z,30.00
2019-05-19T16:06:33.185Z,29.99
2019-05-19T16:08:09.499Z,30.00
2019-05-19T16:09:45.236Z,30.00
2019-05-19T16:11:21.501Z,30.01
2019-05-19T16:12:57.275Z,30.01
2019-05-19T16:14:33.778Z,30.01
2019-05-19T16:16:09.302Z,30.00
2019-05-19T16:17:45.582Z,29.99
2019-05-19T16:19:21.104Z,29.99
2019-05-19T16:20:57.427Z,29.97
2019-05-19T16:22:32.945Z,29.96
2019-05-19T16:24:09.473Z,29.95
2019-05-19T16:25:44.994Z,29.94
2019-05-19T16:27:21.509Z,29.94
2019-05-19T16:28:57.307Z,29.96
2019-05-19T16:30:33.802Z,29.99
2019-05-19T16:32:09.325Z,30.01
2019-05-19T16:33:45.615Z,30.05
2019-05-19T16:35:21.141Z,30.07
2019-05-19T16:36:57.392Z,30.03
2019-05-19T16:38:32.990Z,29.98
2019-05-19T16:40:09.976Z,29.97
2019-05-19T16:41:45.503Z,29.92
2019-05-19T16:43:21.777Z,29.88
2019-05-19T16:44:57.303Z,29.83
2019-05-19T16:46:33.956Z,29.78
2019-05-19T16:48:09.481Z,29.67
2019-05-19T16:49:45.745Z,29.59
2019-05-19T16:51:21.259Z,29.50
2019-05-19T16:52:57.534Z,29.44
2019-05-19T16:54:37.355Z,29.37
2019-05-19T16:56:13.598Z,29.30
2019-05-19T16:57:49.112Z,29.24
2019-05-19T16:59:25.405Z,29.19
2019-05-19T17:01:00.913Z,29.15
2019-05-19T17:02:37.166Z,29.12
2019-05-19T17:04:12.682Z,29.07
2019-05-19T17:05:48.941Z,29.01
2019-05-19T17:07:24.713Z,28.96
2019-05-19T17:09:00.980Z,28.90
2019-05-19T17:10:38.277Z,28.85
2019-05-19T17:12:14.528Z,28.80
2019-05-19T17:13:50.235Z,28.73
2019-05-19T17:15:26.497Z,28.66
2019-05-19T17:17:02.004Z,28.60
2019-05-19T17:18:38.272Z,28.52
2019-05-19T17:20:17.095Z,28.45
2019-05-19T17:21:53.352Z,28.38
2019-05-19T17:23:28.873Z,28.29
2019-05-19T17:25:06.945Z,28.22
2019-05-19T17:26:42.446Z,28.16
2019-05-19T17:28:18.728Z,28.10
2019-05-19T17:29:54.267Z,28.04
2019-05-19T17:31:30.512Z,27.98
2019-05-19T17:33:06.019Z,27.93
2019-05-19T17:34:42.359Z,27.86
2019-05-19T17:36:17.870Z,27.79
2019-05-19T17:37:54.141Z,27.75
2019-05-19T17:39:29.681Z,27.70
2019-05-19T17:41:05.997Z,27.65
2019-05-19T17:42:42.483Z,27.62
2019-05-19T17:44:19.023Z,27.58
2019-05-19T17:45:54.615Z,27.56
2019-05-19T17:47:30.863Z,27.51
2019-05-19T17:49:06.644Z,27.47
2019-05-19T17:50:42.909Z,27.42
2019-05-19T17:52:19.782Z,27.37
2019-05-19T17:53:56.215Z,27.31
2019-05-19T17:55:34.233Z,27.26
2019-05-19T17:57:10.743Z,27.21
2019-05-19T17:58:47.279Z,27.14
2019-05-19T18:00:35.655Z,27.08
2019-05-19T18:02:11.996Z,27.02
2019-05-19T18:03:47.513Z,26.96
2019-05-19T18:05:23.818Z,26.90
2019-05-19T18:06:59.324Z,26.88
2019-05-19T18:08:35.853Z,26.86
2019-05-19T18:10:11.379Z,26.81
2019-05-19T18:11:47.728Z,26.80
2019-05-19T18:13:23.291Z,26.77
2019-05-19T18:14:59.535Z,26.73
2019-05-19T18:16:35.303Z,26.73
2019-05-19T18:18:11.572Z,26.69
2019-05-19T18:19:47.113Z,26.69
2019-05-19T18:21:23.360Z,26.69
2019-05-19T18:22:58.948Z,26.69
2019-05-19T18:24:35.216Z,26.68
2019-05-19T18:26:10.748Z,26.67
2019-05-19T18:27:47.901Z,26.64
2019-05-19T18:29:30.970Z,26.65
2019-05-19T18:31:01.679Z,26.61
2019-05-19T18:32:37.463Z,26.60
2019-05-19T18:34:13.956Z,26.59
2019-05-19T18:35:49.479Z,26.57
2019-05-19T18:37:25.799Z,26.55
2019-05-19T18:39:01.308Z,26.55
2019-05-19T18:40:37.959Z,26.54
2019-05-19T18:42:13.516Z,26.52
2019-05-19T18:43:49.854Z,26.48
2019-05-19T18:45:25.345Z,26.48
2019-05-19T18:47:01.603Z,26.47
2019-05-19T18:48:37.399Z,26.45
2019-05-19T18:50:14.298Z,26.42
2019-05-19T18:51:49.823Z,26.40
2019-05-19T18:53:26.118Z,26.36
2019-05-19T18:55:01.627Z,26.34
2019-05-19T18:56:37.875Z,26.30
2019-05-19T18:58:14.358Z,26.25
2019-05-19T18:59:50.795Z,26.22
2019-05-19T19:01:26.373Z,26.19
2019-05-19T19:03:02.781Z,26.16
2019-05-19T19:04:38.280Z,26.13
2019-05-19T19:06:14.534Z,26.10
2019-05-19T19:07:55.132Z,26.06
2019-05-19T19:09:33.623Z,26.02
2019-05-19T19:11:09.120Z,25.98
2019-05-19T19:12:45.615Z,25.95
2019-05-19T19:14:21.133Z,25.92
2019-05-19T19:15:57.392Z,25.88
2019-05-19T19:17:33.248Z,25.83
2019-05-19T19:19:09.508Z,25.80
2019-05-19T19:20:45.042Z,25.76
2019-05-19T19:22:21.285Z,25.70
2019-05-19T19:23:56.813Z,25.66
2019-05-19T19:25:33.168Z,25.62
2019-05-19T19:27:08.688Z,25.57
2019-05-19T19:28:44.969Z,25.52
2019-05-19T19:30:20.542Z,25.47
2019-05-19T19:31:56.814Z,25.41
2019-05-19T19:33:32.346Z,25.37
2019-05-19T19:35:10.334Z,25.31
2019-05-19T19:36:45.841Z,25.25
2019-05-19T19:38:22.099Z,25.22
2019-05-19T19:39:59.359Z,25.18
2019-05-19T19:41:36.407Z,25.13
2019-05-19T19:43:11.919Z,25.07
2019-05-19T19:44:48.170Z,25.04
2019-05-19T19:46:23.721Z,24.99
2019-05-19T19:47:59.970Z,24.96
2019-05-19T19:49:35.497Z,24.91
2019-05-19T19:51:12.041Z,24.86
2019-05-19T19:52:47.856Z,24.83
2019-05-19T19:54:24.185Z,24.79
2019-05-19T19:55:59.711Z,24.74
2019-05-19T19:57:36.218Z,24.69
2019-05-19T19:59:11.754Z,24.65
2019-05-19T20:00:48.252Z,24.61
2019-05-19T20:02:23.763Z,24.57
2019-05-19T20:04:00.263Z,24.51
2019-05-19T20:05:35.964Z,24.48
2019-05-19T20:07:12.510Z,24.43
2019-05-19T20:08:48.039Z,24.38
2019-05-19T20:10:24.555Z,24.34
2019-05-19T20:12:00.064Z,24.30
2019-05-19T20:13:36.578Z,24.26
2019-05-19T20:15:16.419Z,24.22
2019-05-19T20:16:52.769Z,24.17
2019-05-19T20:18:28.340Z,24.13
2019-05-19T20:20:05.617Z,24.09
2019-05-19T20:21:41.209Z,24.04
2019-05-19T20:23:17.460Z,24.00
2019-05-19T20:24:53.064Z,23.97
2019-05-19T20:26:29.322Z,23.94
2019-05-19T20:28:04.833Z,23.88
2019-05-19T20:29:41.085Z,23.85
2019-05-19T20:31:16.636Z,23.80
2019-05-19T20:32:52.972Z,23.76
2019-05-19T20:34:28.505Z,23.71
2019-05-19T20:36:04.759Z,23.66
2019-05-19T20:37:40.276Z,23.64
2019-05-19T20:39:16.529Z,23.58
2019-05-19T20:40:52.055Z,23.56
2019-05-19T20:42:28.318Z,23.51
2019-05-19T20:44:03.907Z,23.47
2019-05-19T20:45:40.163Z,23.42
2019-05-19T20:47:15.703Z,23.38
2019-05-19T20:48:51.993Z,23.33
2019-05-19T20:50:27.480Z,23.29
2019-05-19T20:52:03.766Z,23.25
2019-05-19T20:53:39.278Z,23.21
2019-05-19T20:55:15.599Z,23.16
2019-05-19T20:56:51.387Z,23.11
2019-05-19T20:58:27.640Z,23.07